createdAt,value
2023-02-22T00:01:36.254Z,16.07
2023-02-22T00:04:05.157Z,23.70
2023-02-22T00:06:32.660Z,16.83
2023-02-22T00:09:02.275Z,21.03
2023-02-22T00:11:31.457Z,19.60
2023-02-22T00:13:59.032Z,16.90
2023-02-22T00:16:27.910Z,18.17
2023-02-22T00:18:55.610Z,19.43
2023-02-22T00:21:23.502Z,12.10
2023-02-22T00:23:51.050Z,15.17
2023-02-22T00:26:23.870Z,16.33
2023-02-22T00:28:53.398Z,24.77
2023-02-22T00:31:22.311Z,21.27
2023-02-22T00:33:51.175Z,24.80
2023-02-22T00:36:18.713Z,17.47
2023-02-22T00:38:46.193Z,20.00
2023-02-22T00:41:13.819Z,16.13
2023-02-22T00:43:41.409Z,23.33
2023-02-22T00:46:08.927Z,24.17
2023-02-22T00:48:36.464Z,30.67
2023-02-22T00:51:05.681Z,18.97
2023-02-22T00:53:33.224Z,14.67
2023-02-22T00:56:00.723Z,14.03
2023-02-22T00:58:28.785Z,15.37
2023-02-22T01:00:56.322Z,22.23
2023-02-22T01:03:23.838Z,15.13
2023-02-22T01:05:51.470Z,21.70
2023-02-22T01:08:20.431Z,13.87
2023-02-22T01:10:48.157Z,27.37
2023-02-22T01:13:15.693Z,25.30
2023-02-22T01:15:45.191Z,18.53
2023-02-22T01:18:17.103Z,18.60
2023-02-22T01:20:48.015Z,17.37
2023-02-22T01:23:17.246Z,49.50
2023-02-22T01:25:46.374Z,49.63
2023-02-22T01:28:15.101Z,38.33
2023-02-22T01:30:42.653Z,30.30
2023-02-22T01:33:10.413Z,22.10
2023-02-22T01:35:40.781Z,23.80
2023-02-22T01:38:09.954Z,26.37
2023-02-22T01:40:38.954Z,20.87
2023-02-22T01:43:17.260Z,17.70
2023-02-22T01:45:49.958Z,25.03
2023-02-22T01:48:21.435Z,13.17
2023-02-22T01:50:54.023Z,28.20
2023-02-22T01:53:24.139Z,22.97
2023-02-22T01:55:53.614Z,34.47
2023-02-22T01:58:25.249Z,17.33
2023-02-22T02:00:52.813Z,27.37
2023-02-22T02:03:23.494Z,103.23
2023-02-22T02:05:53.674Z,77.13
2023-02-22T02:08:30.105Z,38.43
2023-02-22T02:10:58.942Z,55.00
2023-02-22T02:13:29.146Z,50.50
2023-02-22T02:15:57.310Z,39.33
2023-02-22T02:18:27.330Z,33.53
2023-02-22T02:21:34.647Z,43.17
2023-02-22T02:24:28.384Z,39.43
2023-02-22T02:27:20.899Z,30.20
2023-02-22T02:30:29.446Z,17.30
2023-02-22T02:33:04.080Z,55.03
2023-02-22T02:35:47.790Z,44.97
2023-02-22T02:38:23.877Z,95.10
2023-02-22T02:40:59.454Z,187.97
2023-02-22T02:43:33.373Z,129.77
2023-02-22T02:46:06.978Z,204.30
2023-02-22T02:48:40.250Z,68.80
2023-02-22T02:51:14.191Z,36.77
2023-02-22T02:53:45.699Z,43.33
2023-02-22T02:56:13.499Z,21.07
2023-02-22T02:58:48.978Z,64.03
2023-02-22T03:01:28.853Z,35.47
2023-02-22T03:04:20.294Z,80.30
2023-02-22T03:07:26.570Z,38.80
2023-02-22T03:10:03.840Z,28.93
2023-02-22T03:12:43.790Z,18.23
2023-02-22T03:15:23.511Z,27.17
2023-02-22T03:17:57.789Z,17.43
2023-02-22T03:20:32.454Z,27.33
2023-02-22T03:23:05.449Z,23.10
2023-02-22T03:25:37.595Z,26.50
2023-02-22T03:28:11.402Z,32.30
2023-02-22T03:30:44.122Z,26.93
2023-02-22T03:33:16.623Z,20.43
2023-02-22T03:35:50.940Z,20.77
2023-02-22T03:38:21.847Z,18.73
2023-02-22T03:40:54.393Z,22.43
2023-02-22T03:43:25.881Z,23.40
2023-02-22T03:45:54.090Z,31.57
2023-02-22T03:48:26.672Z,20.27
2023-02-22T03:50:58.551Z,23.13
2023-02-22T03:53:26.255Z,21.57
2023-02-22T03:55:57.859Z,35.60
2023-02-22T03:58:27.486Z,22.90
2023-02-22T04:00:56.072Z,20.93
2023-02-22T04:03:24.267Z,23.47
2023-02-22T04:05:51.740Z,27.37
2023-02-22T04:08:20.594Z,76.57
2023-02-22T04:10:48.062Z,113.70
2023-02-22T04:13:15.591Z,32.43
2023-02-22T04:15:43.298Z,44.00
2023-02-22T04:18:10.782Z,32.60
2023-02-22T04:20:38.237Z,24.67
2023-02-22T04:23:05.816Z,28.00
2023-02-22T04:25:34.602Z,36.47
2023-02-22T04:28:02.121Z,27.83
2023-02-22T04:30:30.107Z,20.93
2023-02-22T04:32:57.874Z,18.33
2023-02-22T04:35:25.360Z,40.27
2023-02-22T04:37:52.862Z,68.50
2023-02-22T04:40:23.010Z,30.40
2023-02-22T04:42:51.833Z,20.13
2023-02-22T04:45:19.326Z,20.90
2023-02-22T04:47:46.813Z,25.57
2023-02-22T04:50:15.259Z,22.13
2023-02-22T04:52:42.746Z,23.37
2023-02-22T04:55:10.853Z,26.90
2023-02-22T04:57:38.353Z,23.43
2023-02-22T05:00:10.189Z,24.20
2023-02-22T05:02:39.912Z,23.90
2023-02-22T05:05:08.152Z,27.87
2023-02-22T05:07:35.627Z,26.30
2023-02-22T05:10:03.661Z,40.07
2023-02-22T05:12:31.134Z,45.70
2023-02-22T05:14:58.600Z,68.13
2023-02-22T05:17:27.475Z,46.30
2023-02-22T05:19:54.958Z,33.33
2023-02-22T05:22:22.439Z,39.33
2023-02-22T05:24:49.910Z,50.17
2023-02-22T05:27:17.428Z,63.83
2023-02-22T05:29:44.933Z,43.00
2023-02-22T05:32:13.112Z,44.33
2023-02-22T05:34:41.946Z,64.60
2023-02-22T05:37:09.428Z,170.33
2023-02-22T05:39:36.928Z,83.63
2023-02-22T05:42:04.504Z,108.77
2023-02-22T05:44:31.982Z,179.47
2023-02-22T05:46:59.452Z,176.40
2023-02-22T05:49:26.942Z,323.17
2023-02-22T05:51:59.505Z,337.03
2023-02-22T05:54:27.028Z,351.90
2023-02-22T05:56:54.498Z,353.10
2023-02-22T05:59:21.973Z,410.57
2023-02-22T06:01:49.498Z,300.03
2023-02-22T06:04:17.093Z,295.43
2023-02-22T06:06:44.543Z,393.27
2023-02-22T06:09:13.374Z,242.07
2023-02-22T06:11:40.856Z,177.43
2023-02-22T06:14:08.320Z,278.90
2023-02-22T06:16:35.811Z,404.10
2023-02-22T06:19:03.362Z,332.47
2023-02-22T06:21:30.840Z,197.90
2023-02-22T06:23:58.317Z,142.50
2023-02-22T06:26:27.145Z,192.10
2023-02-22T06:28:54.602Z,290.57
2023-02-22T06:31:22.078Z,308.17
2023-02-22T06:33:49.544Z,213.63
2023-02-22T06:36:16.981Z,132.90
2023-02-22T06:38:44.430Z,112.17
2023-02-22T06:41:11.867Z,302.83
2023-02-22T06:43:40.638Z,299.60
2023-02-22T06:46:11.506Z,114.40
2023-02-22T06:48:40.133Z,165.60
2023-02-22T06:51:09.193Z,187.97
2023-02-22T06:53:36.722Z,239.60
2023-02-22T06:56:04.428Z,190.50
2023-02-22T06:58:31.874Z,132.17
2023-02-22T07:01:02.753Z,117.07
2023-02-22T07:03:30.269Z,137.07
2023-02-22T07:05:57.730Z,161.93
2023-02-22T07:08:25.191Z,126.77
2023-02-22T07:10:53.048Z,190.40
2023-02-22T07:13:20.528Z,147.37
2023-02-22T07:15:48.315Z,192.67
2023-02-22T07:18:17.147Z,244.33
2023-02-22T07:20:44.622Z,309.27
2023-02-22T07:23:14.846Z,155.50
2023-02-22T07:25:42.722Z,110.50
2023-02-22T07:28:11.049Z,72.27
2023-02-22T07:30:39.186Z,134.90
2023-02-22T07:33:09.288Z,75.17
2023-02-22T07:35:40.065Z,51.07
2023-02-22T07:38:09.171Z,74.73
2023-02-22T07:40:37.743Z,89.70
2023-02-22T07:43:11.247Z,119.67
2023-02-22T07:45:38.727Z,45.60
2023-02-22T07:48:07.630Z,101.50
2023-02-22T07:50:36.560Z,38.87
2023-02-22T07:53:10.956Z,43.87
2023-02-22T07:55:38.575Z,59.87
2023-02-22T07:58:09.163Z,112.33
2023-02-22T08:00:39.215Z,86.37
2023-02-22T08:03:08.576Z,66.67
2023-02-22T08:05:37.500Z,49.57
2023-02-22T08:08:08.244Z,98.40
2023-02-22T08:10:36.945Z,50.13
2023-02-22T08:13:05.837Z,35.50
2023-02-22T08:15:35.677Z,68.03
2023-02-22T08:18:05.027Z,82.43
2023-02-22T08:20:32.922Z,45.53
2023-02-22T08:23:00.372Z,120.63
2023-02-22T08:25:30.499Z,161.27
2023-02-22T08:28:01.090Z,173.38
2023-02-22T08:30:29.894Z,165.68
2023-02-22T08:32:58.096Z,167.65
2023-02-22T08:35:27.394Z,80.80
2023-02-22T08:37:58.235Z,105.90
2023-02-22T08:40:28.644Z,110.72
2023-02-22T08:42:57.466Z,123.78
2023-02-22T08:45:25.375Z,24.40
2023-02-22T08:47:52.993Z,17.75
2023-02-22T08:50:23.107Z,20.70
2023-02-22T08:52:51.300Z,20.40
2023-02-22T08:55:20.685Z,17.52
2023-02-22T08:57:48.128Z,120.63
2023-02-22T09:00:18.552Z,41.25
2023-02-22T09:02:46.199Z,50.55
2023-02-22T09:05:13.951Z,73.03
2023-02-22T09:07:43.340Z,56.88
2023-02-22T09:10:15.397Z,50.15
2023-02-22T09:12:43.246Z,79.03
2023-02-22T09:15:12.139Z,94.20
2023-02-22T09:17:40.928Z,87.47
2023-02-22T09:20:10.352Z,56.38
2023-02-22T09:22:37.808Z,31.38
2023-02-22T09:25:16.269Z,21.67
2023-02-22T09:27:44.968Z,13.30
2023-02-22T09:30:18.070Z,11.95
2023-02-22T09:32:47.024Z,10.75
2023-02-22T09:35:14.600Z,10.43
2023-02-22T09:37:44.856Z,10.93
2023-02-22T09:40:24.653Z,11.38
2023-02-22T09:43:03.190Z,10.23
2023-02-22T09:45:36.924Z,13.40
2023-02-22T09:48:21.152Z,12.23
2023-02-22T09:50:53.675Z,47.47
2023-02-22T09:53:29.537Z,35.75
2023-02-22T09:56:01.576Z,12.25
2023-02-22T09:58:34.217Z,9.65
2023-02-22T10:01:17.205Z,8.18
2023-02-22T10:03:51.638Z,7.40
2023-02-22T10:06:22.589Z,8.60
2023-02-22T10:08:53.719Z,8.23
2023-02-22T10:11:35.008Z,9.27
2023-02-22T10:14:14.449Z,7.40
2023-02-22T10:16:48.183Z,7.13
2023-02-22T10:19:25.945Z,7.20
2023-02-22T10:22:06.785Z,6.93
2023-02-22T10:24:45.453Z,8.15
2023-02-22T10:27:19.504Z,7.50
2023-02-22T10:29:51.781Z,8.52
2023-02-22T10:32:32.147Z,8.55
2023-02-22T10:35:05.380Z,7.85
2023-02-22T10:37:34.293Z,7.35
2023-02-22T10:40:13.892Z,6.85
2023-02-22T10:42:41.350Z,9.27
2023-02-22T10:45:22.407Z,7.28
2023-02-22T10:47:50.711Z,6.53
2023-02-22T10:50:21.394Z,7.40
2023-02-22T10:52:49.112Z,8.20
2023-02-22T10:55:17.497Z,6.40
2023-02-22T10:57:48.533Z,7.32
2023-02-22T11:00:20.483Z,6.82
2023-02-22T11:02:53.656Z,7.25
2023-02-22T11:05:36.868Z,8.02
2023-02-22T11:08:24.645Z,6.65
2023-02-22T11:10:54.272Z,8.82
2023-02-22T11:13:26.910Z,7.93
2023-02-22T11:15:54.738Z,7.53
2023-02-22T11:18:26.643Z,7.20
2023-02-22T11:21:07.780Z,8.52
2023-02-22T11:23:37.551Z,8.23
2023-02-22T11:26:09.840Z,7.85
2023-02-22T11:28:49.093Z,6.28
2023-02-22T11:31:21.552Z,6.78
2023-02-22T11:36:37.443Z,6.43
2023-02-22T11:39:11.456Z,6.38
2023-02-22T11:41:39.050Z,6.18
2023-02-22T11:44:15.080Z,7.18
2023-02-22T11:46:44.575Z,6.03
2023-02-22T11:49:17.212Z,6.40
2023-02-22T11:51:54.317Z,6.57
2023-02-22T11:54:46.916Z,7.40
2023-02-22T11:57:32.929Z,6.78
2023-02-22T12:00:15.952Z,6.45
2023-02-22T12:03:03.385Z,8.55
2023-02-22T12:05:59.353Z,7.03
2023-02-22T12:08:40.975Z,8.98
2023-02-22T12:11:18.158Z,5.90
2023-02-22T12:14:02.491Z,7.03
2023-02-22T12:16:44.708Z,7.53
2023-02-22T12:19:21.956Z,7.32
2023-02-22T12:21:55.716Z,5.90
2023-02-22T12:24:27.989Z,6.07
2023-02-22T12:27:02.099Z,5.70
2023-02-22T12:29:37.564Z,6.78
2023-02-22T12:32:09.968Z,5.85
2023-02-22T12:34:41.857Z,4.60
2023-02-22T12:37:18.858Z,5.45
2023-02-22T12:40:03.271Z,4.93
2023-02-22T12:42:40.785Z,5.55
2023-02-22T12:45:16.782Z,5.80
2023-02-22T12:47:50.090Z,5.35
2023-02-22T12:50:20.865Z,6.05
2023-02-22T12:52:56.311Z,5.28
2023-02-22T12:55:29.471Z,5.35
2023-02-22T12:58:07.590Z,4.55
2023-02-22T13:00:42.671Z,4.80
2023-02-22T13:03:27.033Z,4.55
2023-02-22T13:06:03.909Z,7.80
2023-02-22T13:08:38.225Z,5.22
2023-02-22T13:11:22.273Z,4.28
2023-02-22T13:14:03.784Z,4.55
2023-02-22T13:16:43.711Z,4.00
2023-02-22T13:19:24.870Z,4.40
2023-02-22T13:21:57.964Z,4.63
2023-02-22T13:24:30.276Z,4.97
2023-02-22T13:27:02.624Z,6.82
2023-02-22T13:29:35.031Z,4.82
2023-02-22T13:32:18.169Z,4.40
2023-02-22T13:35:15.066Z,5.18
2023-02-22T13:37:56.742Z,5.05
2023-02-22T13:40:54.825Z,5.25
2023-02-22T13:43:43.304Z,4.38
2023-02-22T13:46:36.118Z,4.63
2023-02-22T13:49:18.744Z,5.15
2023-02-22T13:51:51.478Z,4.88
2023-02-22T13:54:25.318Z,5.32
2023-02-22T13:56:55.057Z,4.85
2023-02-22T13:59:28.588Z,4.60
2023-02-22T14:01:57.286Z,5.20
2023-02-22T14:04:45.541Z,4.45
2023-02-22T14:07:46.711Z,4.72
2023-02-22T14:10:48.928Z,5.03
2023-02-22T14:13:18.836Z,5.20
2023-02-22T14:16:20.887Z,5.32
2023-02-22T14:18:51.591Z,4.20
2023-02-22T14:21:21.176Z,7.00
2023-02-22T14:23:50.658Z,6.45
2023-02-22T14:26:24.436Z,4.78
2023-02-22T14:28:55.472Z,5.88
2023-02-22T14:31:36.055Z,4.43
2023-02-22T14:34:08.242Z,3.53
2023-02-22T14:36:41.738Z,3.70
2023-02-22T14:39:21.295Z,4.13
2023-02-22T14:41:54.621Z,3.72
2023-02-22T14:44:28.708Z,3.78
2023-02-22T14:47:02.418Z,3.25
2023-02-22T14:49:32.983Z,3.38
2023-02-22T14:52:06.186Z,3.90
2023-02-22T14:54:41.741Z,2.97
2023-02-22T14:57:15.605Z,3.20
2023-02-22T14:59:58.856Z,2.88
2023-02-22T15:02:27.772Z,3.20
2023-02-22T15:04:56.758Z,4.47
2023-02-22T15:07:28.127Z,4.70
2023-02-22T15:10:20.547Z,4.97
2023-02-22T15:13:08.629Z,3.47
2023-02-22T15:15:43.720Z,4.30
2023-02-22T15:18:21.928Z,3.25
2023-02-22T15:20:55.857Z,3.72
2023-02-22T15:23:27.627Z,7.03
2023-02-22T15:25:55.104Z,3.88
2023-02-22T15:28:25.286Z,3.50
2023-02-22T15:30:52.778Z,4.18
2023-02-22T15:33:24.171Z,20.92
2023-02-22T15:35:56.655Z,8.93
2023-02-22T15:38:29.354Z,5.22
2023-02-22T15:41:02.491Z,5.45
2023-02-22T15:43:32.024Z,3.47
2023-02-22T15:46:00.778Z,3.25
2023-02-22T15:48:31.542Z,3.38
2023-02-22T15:51:04.178Z,3.10
2023-02-22T15:53:39.873Z,2.75
2023-02-22T15:56:12.549Z,4.03
2023-02-22T15:58:40.449Z,2.97
2023-02-22T16:01:10.993Z,3.42
2023-02-22T16:03:47.044Z,4.40
2023-02-22T16:06:28.423Z,17.17
2023-02-22T16:08:57.357Z,18.90
2023-02-22T16:11:29.857Z,9.25
2023-02-22T16:14:00.776Z,7.60
2023-02-22T16:16:34.051Z,9.20
2023-02-22T16:19:28.568Z,9.20
2023-02-22T16:21:58.242Z,7.97
2023-02-22T16:24:30.080Z,10.48
2023-02-22T16:27:07.172Z,6.90
2023-02-22T16:29:34.746Z,7.97
2023-02-22T16:32:03.833Z,6.47
2023-02-22T16:34:32.710Z,6.75
2023-02-22T16:37:01.239Z,6.47
2023-02-22T16:39:31.336Z,5.53
2023-02-22T16:42:01.156Z,5.18
2023-02-22T16:44:29.754Z,5.47
2023-02-22T16:46:59.251Z,4.03
2023-02-22T16:49:27.346Z,6.57
2023-02-22T16:51:59.721Z,12.80
2023-02-22T16:54:34.174Z,25.00
2023-02-22T16:57:03.889Z,70.20
2023-02-22T16:59:34.030Z,41.05
2023-02-22T17:02:01.505Z,26.50
2023-02-22T17:04:29.119Z,41.60
2023-02-22T17:06:58.991Z,33.75
2023-02-22T17:09:26.812Z,73.00
2023-02-22T17:11:55.224Z,72.72
2023-02-22T17:14:26.918Z,93.90
2023-02-22T17:16:54.398Z,81.15
2023-02-22T17:19:24.384Z,95.53
2023-02-22T17:21:51.929Z,89.75
2023-02-22T17:24:23.432Z,91.00
2023-02-22T17:26:51.945Z,104.90
2023-02-22T17:29:20.563Z,58.15
2023-02-22T17:31:48.886Z,10.60
2023-02-22T17:34:17.727Z,30.92
2023-02-22T17:36:45.259Z,9.87
2023-02-22T17:39:13.449Z,37.30
2023-02-22T17:41:42.252Z,44.05
2023-02-22T17:44:09.712Z,42.00
2023-02-22T17:46:37.375Z,47.03
2023-02-22T17:49:04.915Z,8.60
2023-02-22T17:51:32.428Z,8.45
2023-02-22T17:53:59.894Z,7.82
2023-02-22T17:56:27.363Z,11.07
2023-02-22T17:58:56.278Z,14.35
2023-02-22T18:01:26.863Z,16.17
2023-02-22T18:03:54.799Z,4.97
2023-02-22T18:06:26.945Z,7.43
2023-02-22T18:08:56.493Z,13.23
2023-02-22T18:11:26.220Z,31.53
2023-02-22T18:13:54.488Z,42.57
2023-02-22T18:16:25.431Z,17.53
2023-02-22T18:18:53.048Z,14.67
2023-02-22T18:21:20.570Z,9.10
2023-02-22T18:23:48.077Z,12.73
2023-02-22T18:26:17.790Z,14.20
2023-02-22T18:28:45.406Z,16.77
2023-02-22T18:31:15.411Z,15.90
2023-02-22T18:33:45.322Z,17.60
2023-02-22T18:36:14.379Z,20.57
2023-02-22T18:38:43.773Z,74.00
2023-02-22T18:41:13.374Z,60.93
2023-02-22T18:43:41.924Z,87.17
2023-02-22T18:46:11.103Z,116.97
2023-02-22T18:48:38.744Z,44.37
2023-02-22T18:51:10.161Z,28.17
2023-02-22T18:53:38.310Z,26.03
2023-02-22T18:56:08.326Z,17.30
2023-02-22T18:58:36.096Z,30.80
2023-02-22T19:01:04.771Z,27.00
2023-02-22T19:03:33.075Z,25.37
2023-02-22T19:06:02.762Z,25.73
2023-02-22T19:08:32.372Z,21.10
2023-02-22T19:11:05.134Z,9.40
2023-02-22T19:13:33.769Z,26.53
2023-02-22T19:16:03.174Z,28.23
2023-02-22T19:18:31.534Z,32.90
2023-02-22T19:20:59.386Z,32.70
2023-02-22T19:23:27.001Z,23.37
2023-02-22T19:25:55.919Z,55.50
2023-02-22T19:28:28.014Z,34.00
2023-02-22T19:30:55.550Z,29.20
2023-02-22T19:33:26.043Z,28.80
2023-02-22T19:35:53.703Z,34.73
2023-02-22T19:38:21.296Z,24.13
2023-02-22T19:40:48.789Z,43.70
2023-02-22T19:43:17.588Z,36.90
2023-02-22T19:45:45.102Z,30.10
2023-02-22T19:48:14.198Z,29.70
2023-02-22T19:50:48.857Z,26.70
2023-02-22T19:53:16.408Z,23.37
2023-02-22T19:55:44.510Z,39.13
2023-02-22T19:58:14.613Z,56.93
2023-02-22T20:00:43.439Z,101.80
2023-02-22T20:03:13.346Z,155.30
2023-02-22T20:05:41.946Z,113.47
2023-02-22T20:08:09.742Z,100.50
2023-02-22T20:10:37.207Z,133.33
2023-02-22T20:13:04.741Z,157.50
2023-02-22T20:15:34.513Z,147.40
2023-02-22T20:18:03.397Z,152.97
2023-02-22T20:20:33.500Z,132.50
2023-02-22T20:23:01.003Z,149.87
2023-02-22T20:25:28.465Z,123.10
2023-02-22T20:27:56.379Z,145.13
2023-02-22T20:30:23.859Z,144.77
2023-02-22T20:32:51.614Z,146.60
2023-02-22T20:35:21.126Z,166.37
2023-02-22T20:37:48.625Z,156.30
2023-02-22T20:40:16.237Z,161.67
2023-02-22T20:42:44.550Z,156.30
2023-02-22T20:45:14.579Z,155.03
2023-02-22T20:47:42.095Z,94.73
2023-02-22T20:50:09.909Z,134.37
2023-02-22T20:52:38.745Z,131.60
2023-02-22T20:55:11.353Z,155.67
2023-02-22T20:57:38.857Z,126.27
2023-02-22T21:00:10.427Z,172.97
2023-02-22T21:02:38.317Z,165.47
2023-02-22T21:05:06.478Z,173.47
2023-02-22T21:07:34.089Z,135.50
2023-02-22T21:10:04.536Z,179.70
2023-02-22T21:12:32.049Z,133.03
2023-02-22T21:14:59.592Z,161.00
2023-02-22T21:17:29.000Z,176.80
2023-02-22T21:19:56.620Z,152.63
2023-02-22T21:22:25.181Z,68.53
2023-02-22T21:24:53.232Z,124.50
2023-02-22T21:27:22.073Z,83.37
2023-02-22T21:29:49.526Z,47.63
2023-02-22T21:32:17.918Z,150.80
2023-02-22T21:34:45.404Z,183.47
2023-02-22T21:37:17.950Z,132.77
2023-02-22T21:39:47.475Z,162.93
2023-02-22T21:42:15.110Z,93.57
2023-02-22T21:44:43.916Z,92.80
2023-02-22T21:47:11.400Z,164.13
2023-02-22T21:49:38.974Z,186.83
2023-02-22T21:52:07.648Z,166.60
2023-02-22T21:54:35.108Z,159.07
2023-02-22T21:57:02.585Z,118.57
2023-02-22T21:59:30.069Z,109.83
2023-02-22T22:01:58.876Z,155.93
2023-02-22T22:04:29.372Z,107.17
2023-02-22T22:06:58.797Z,123.43
2023-02-22T22:09:29.025Z,103.00
2023-02-22T22:11:58.974Z,68.53
2023-02-22T22:14:27.238Z,61.87
2023-02-22T22:16:58.156Z,54.10
2023-02-22T22:19:27.037Z,42.17
2023-02-22T22:21:54.525Z,138.87
2023-02-22T22:24:23.528Z,158.17
2023-02-22T22:26:54.456Z,179.80
2023-02-22T22:29:23.664Z,147.33
2023-02-22T22:31:51.562Z,82.63
2023-02-22T22:34:19.481Z,135.33
2023-02-22T22:36:48.431Z,121.30
2023-02-22T22:39:16.053Z,22.93
2023-02-22T22:41:44.985Z,14.33
2023-02-22T22:44:15.194Z,25.07
2023-02-22T22:46:43.583Z,43.13
2023-02-22T22:49:13.287Z,76.67
2023-02-22T22:51:42.438Z,130.23
2023-02-22T22:54:11.684Z,148.73
2023-02-22T22:56:39.531Z,153.77
2023-02-22T22:59:09.535Z,78.67
2023-02-22T23:01:40.509Z,139.23
2023-02-22T23:04:10.687Z,115.97
2023-02-22T23:06:41.093Z,168.87
2023-02-22T23:09:11.375Z,56.90
2023-02-22T23:11:45.033Z,154.53
2023-02-22T23:14:15.123Z,157.03
2023-02-22T23:16:42.860Z,171.17
2023-02-22T23:19:10.692Z,136.10
2023-02-22T23:21:39.327Z,157.90
2023-02-22T23:24:07.316Z,186.43
2023-02-22T23:26:36.046Z,160.97
2023-02-22T23:29:05.406Z,123.40
2023-02-22T23:31:33.166Z,172.37
2023-02-22T23:34:06.516Z,161.30
2023-02-22T23:36:34.609Z,163.07
2023-02-22T23:39:02.103Z,111.40
2023-02-22T23:41:29.762Z,96.43
2023-02-22T23:43:57.874Z,164.47
2023-02-22T23:46:27.037Z,148.97
2023-02-22T23:49:01.542Z,172.57
2023-02-22T23:51:38.971Z,81.47
2023-02-22T23:54:07.240Z,119.43
2023-02-22T23:56:35.327Z,93.37
2023-02-22T23:59:09.448Z,64.53
